createdAt,value
2018-02-14T00:01:56.899Z,10.57
2018-02-14T00:04:25.916Z,9.80
2018-02-14T00:06:54.158Z,8.77
2018-02-14T00:09:23.232Z,7.40
2018-02-14T00:11:51.462Z,10.23
2018-02-14T00:14:19.777Z,11.37
2018-02-14T00:16:47.994Z,9.80
2018-02-14T00:19:16.258Z,10.23
2018-02-14T00:21:45.263Z,8.03
2018-02-14T00:24:13.518Z,8.87
2018-02-14T00:26:42.526Z,11.13
2018-02-14T00:29:10.866Z,7.80
2018-02-14T00:31:39.146Z,9.63
2018-02-14T00:34:08.155Z,8.47
2018-02-14T00:36:36.399Z,10.83
2018-02-14T00:39:04.710Z,10.13
2018-02-14T00:41:32.982Z,11.27
2018-02-14T00:44:01.223Z,10.43
2018-02-14T00:46:29.500Z,10.50
2018-02-14T00:48:57.769Z,15.80
2018-02-14T00:51:26.027Z,9.30
2018-02-14T00:53:54.303Z,13.70
2018-02-14T00:56:22.800Z,12.07
2018-02-14T00:58:51.055Z,7.70
2018-02-14T01:01:19.293Z,11.47
2018-02-14T01:03:47.550Z,14.83
2018-02-14T01:06:16.595Z,18.37
2018-02-14T01:08:44.852Z,7.87
2018-02-14T01:11:13.100Z,12.73
2018-02-14T01:13:41.359Z,13.40
2018-02-14T01:16:10.385Z,11.83
2018-02-14T01:18:38.667Z,11.37
2018-02-14T01:21:06.954Z,11.00
2018-02-14T01:23:35.211Z,13.93
2018-02-14T01:26:03.450Z,12.50
2018-02-14T01:28:32.541Z,13.20
2018-02-14T01:31:00.774Z,14.27
2018-02-14T01:33:29.034Z,15.30
2018-02-14T01:35:57.458Z,15.37
2018-02-14T01:38:25.670Z,12.40
2018-02-14T01:40:53.938Z,14.47
2018-02-14T01:43:22.211Z,13.10
2018-02-14T01:45:50.479Z,13.00
2018-02-14T01:48:18.772Z,13.60
2018-02-14T01:50:47.019Z,13.07
2018-02-14T01:53:16.059Z,15.93
2018-02-14T01:55:44.452Z,14.23
2018-02-14T01:58:12.852Z,17.40
2018-02-14T02:00:41.106Z,13.73
2018-02-14T02:03:10.938Z,11.73
2018-02-14T02:05:39.169Z,15.70
2018-02-14T02:08:07.427Z,11.33
2018-02-14T02:10:35.786Z,13.53
2018-02-14T02:13:04.119Z,12.63
2018-02-14T02:15:32.370Z,24.43
2018-02-14T02:18:00.707Z,14.57
2018-02-14T02:20:33.694Z,15.23
2018-02-14T02:23:02.731Z,11.70
2018-02-14T02:25:30.983Z,14.03
2018-02-14T02:27:59.223Z,12.17
2018-02-14T02:30:28.252Z,15.93
2018-02-14T02:32:56.583Z,15.33
2018-02-14T02:35:24.859Z,11.37
2018-02-14T02:37:53.164Z,11.10
2018-02-14T02:40:31.202Z,11.17
2018-02-14T02:42:59.439Z,14.47
2018-02-14T02:45:27.713Z,11.87
2018-02-14T02:47:56.719Z,11.80
2018-02-14T02:50:25.043Z,13.97
2018-02-14T02:52:54.119Z,10.87
2018-02-14T02:55:22.399Z,11.00
2018-02-14T02:57:50.651Z,17.67
2018-02-14T03:00:18.923Z,10.93
2018-02-14T03:02:47.212Z,13.53
2018-02-14T03:05:15.498Z,12.97
2018-02-14T03:07:43.758Z,10.63
2018-02-14T03:10:12.113Z,12.53
2018-02-14T03:12:40.354Z,10.27
2018-02-14T03:15:08.593Z,16.43
2018-02-14T03:17:36.854Z,13.27
2018-02-14T03:20:05.119Z,12.33
2018-02-14T03:22:33.386Z,15.30
2018-02-14T03:25:01.673Z,10.97
2018-02-14T03:27:29.975Z,11.03
2018-02-14T03:29:58.218Z,8.73
2018-02-14T03:32:26.490Z,11.67
2018-02-14T03:34:54.940Z,10.70
2018-02-14T03:37:23.358Z,9.93
2018-02-14T03:39:51.594Z,12.23
2018-02-14T03:42:20.627Z,9.90
2018-02-14T03:44:48.973Z,9.10
2018-02-14T03:47:17.244Z,11.20
2018-02-14T03:49:46.251Z,8.80
2018-02-14T03:52:14.786Z,10.43
2018-02-14T03:54:44.534Z,13.47
2018-02-14T03:57:12.838Z,8.80
2018-02-14T03:59:41.078Z,13.07
2018-02-14T04:02:09.366Z,10.30
2018-02-14T04:04:37.627Z,10.23
2018-02-14T04:07:06.638Z,11.47
2018-02-14T04:09:34.906Z,11.80
2018-02-14T04:12:03.256Z,12.13
2018-02-14T04:14:32.287Z,10.30
2018-02-14T04:17:00.543Z,18.83
2018-02-14T04:19:29.578Z,13.27
2018-02-14T04:21:57.825Z,12.03
2018-02-14T04:24:26.110Z,11.50
2018-02-14T04:26:54.370Z,12.80
2018-02-14T04:29:22.643Z,11.97
2018-02-14T04:31:50.895Z,9.60
2018-02-14T04:34:19.913Z,13.73
2018-02-14T04:36:48.146Z,11.43
2018-02-14T04:39:17.175Z,13.10
2018-02-14T04:41:45.429Z,16.97
2018-02-14T04:44:14.478Z,12.03
2018-02-14T04:46:42.830Z,16.03
2018-02-14T04:49:11.279Z,11.83
2018-02-14T04:51:40.360Z,13.17
2018-02-14T04:54:10.394Z,14.43
2018-02-14T04:56:39.421Z,13.43
2018-02-14T04:59:07.675Z,17.20
2018-02-14T05:01:35.978Z,14.10
2018-02-14T05:04:04.302Z,14.73
2018-02-14T05:06:32.579Z,17.43
2018-02-14T05:09:01.603Z,21.97
2018-02-14T05:11:29.866Z,17.37
2018-02-14T05:13:58.118Z,18.53
2018-02-14T05:16:28.083Z,16.83
2018-02-14T05:18:56.486Z,15.13
2018-02-14T05:21:24.791Z,15.17
2018-02-14T05:23:53.969Z,18.17
2018-02-14T05:26:22.247Z,18.17
2018-02-14T05:28:50.471Z,19.60
2018-02-14T05:31:18.906Z,18.23
2018-02-14T05:33:47.910Z,18.30
2018-02-14T05:36:16.179Z,25.77
2018-02-14T05:38:45.254Z,23.53
2018-02-14T05:41:14.311Z,21.80
2018-02-14T05:43:42.577Z,19.07
2018-02-14T05:46:10.826Z,22.40
2018-02-14T05:48:39.095Z,25.87
2018-02-14T05:51:07.350Z,22.43
2018-02-14T05:53:36.394Z,26.83
2018-02-14T05:56:04.666Z,22.47
2018-02-14T05:58:32.982Z,23.47
2018-02-14T06:01:01.242Z,20.57
2018-02-14T06:03:29.523Z,19.13
2018-02-14T06:05:57.814Z,20.30
2018-02-14T06:08:26.192Z,27.40
2018-02-14T06:10:54.426Z,23.60
2018-02-14T06:13:22.694Z,33.67
2018-02-14T06:15:50.959Z,22.23
2018-02-14T06:18:19.395Z,24.97
2018-02-14T06:20:47.839Z,20.80
2018-02-14T06:23:16.128Z,15.63
2018-02-14T06:25:44.423Z,16.07
2018-02-14T06:28:13.459Z,19.47
2018-02-14T06:30:41.735Z,22.83
2018-02-14T06:33:10.035Z,22.60
2018-02-14T06:35:38.314Z,18.83
2018-02-14T06:38:06.583Z,16.97
2018-02-14T06:40:35.066Z,18.47
2018-02-14T06:43:03.318Z,19.20
2018-02-14T06:45:31.587Z,20.17
2018-02-14T06:47:59.871Z,18.67
2018-02-14T06:50:28.166Z,19.13
2018-02-14T06:52:56.439Z,16.17
2018-02-14T06:55:24.689Z,19.50
2018-02-14T06:57:52.942Z,22.23
2018-02-14T07:00:21.217Z,27.30
2018-02-14T07:02:49.517Z,27.03
2018-02-14T07:05:17.795Z,30.67
2018-02-14T07:07:46.206Z,30.77
2018-02-14T07:10:14.475Z,30.40
2018-02-14T07:12:44.245Z,26.13
2018-02-14T07:15:12.506Z,26.33
2018-02-14T07:17:40.790Z,21.00
2018-02-14T07:20:09.246Z,22.13
2018-02-14T07:22:38.414Z,24.33
2018-02-14T07:25:06.625Z,21.97
2018-02-14T07:27:34.907Z,29.07
2018-02-14T07:30:03.167Z,25.30
2018-02-14T07:32:31.456Z,20.70
2018-02-14T07:34:59.742Z,24.03
2018-02-14T07:37:27.958Z,24.40
2018-02-14T07:39:58.596Z,27.77
2018-02-14T07:42:27.266Z,24.70
2018-02-14T07:44:55.533Z,28.47
2018-02-14T07:47:23.845Z,25.80
2018-02-14T07:49:52.094Z,24.53
2018-02-14T07:52:20.346Z,25.17
2018-02-14T07:54:48.714Z,20.53
2018-02-14T07:57:17.086Z,21.80
2018-02-14T07:59:45.350Z,22.20
2018-02-14T08:02:13.633Z,23.50
2018-02-14T08:04:41.918Z,19.10
2018-02-14T08:07:10.197Z,25.37
2018-02-14T08:09:38.467Z,23.27
2018-02-14T08:12:06.714Z,21.07
2018-02-14T08:14:35.141Z,26.53
2018-02-14T08:17:03.397Z,22.20
2018-02-14T08:19:31.653Z,21.27
2018-02-14T08:21:59.923Z,19.60
2018-02-14T08:24:28.273Z,20.93
2018-02-14T08:26:56.514Z,19.97
2018-02-14T08:29:24.783Z,22.10
2018-02-14T08:31:53.106Z,18.70
2018-02-14T08:34:22.182Z,24.57
2018-02-14T08:36:50.390Z,20.23
2018-02-14T08:39:18.646Z,20.43
2018-02-14T08:41:46.934Z,20.47
2018-02-14T08:44:15.968Z,18.20
2018-02-14T08:46:44.226Z,17.50
2018-02-14T08:49:12.490Z,18.47
2018-02-14T08:51:40.748Z,23.93
2018-02-14T08:54:09.771Z,14.73
2018-02-14T08:56:38.039Z,22.90
2018-02-14T08:59:06.294Z,16.27
2018-02-14T09:01:34.554Z,14.83
2018-02-14T09:04:03.566Z,22.63
2018-02-14T09:06:31.846Z,14.83
2018-02-14T09:09:00.114Z,17.50
2018-02-14T09:11:28.366Z,18.67
2018-02-14T09:13:56.792Z,16.17
2018-02-14T09:16:25.056Z,16.87
2018-02-14T09:18:53.366Z,20.40
2018-02-14T09:21:21.637Z,17.70
2018-02-14T09:23:50.077Z,21.10
2018-02-14T09:26:18.273Z,16.40
2018-02-14T09:28:46.534Z,16.70
2018-02-14T09:31:14.799Z,21.53
2018-02-14T09:33:43.082Z,15.33
2018-02-14T09:36:11.339Z,20.37
2018-02-14T09:38:39.641Z,23.07
2018-02-14T09:41:08.059Z,20.70
2018-02-14T09:43:37.899Z,19.73
2018-02-14T09:46:06.963Z,17.57
2018-02-14T09:48:35.214Z,19.63
2018-02-14T09:51:03.497Z,19.87
2018-02-14T09:53:31.911Z,17.93
2018-02-14T09:56:00.931Z,17.50
2018-02-14T09:58:29.189Z,18.60
2018-02-14T10:00:57.472Z,16.70
2018-02-14T10:03:25.739Z,18.77
2018-02-14T10:05:54.823Z,16.43
2018-02-14T10:08:23.058Z,18.47
2018-02-14T10:10:51.334Z,19.40
2018-02-14T10:13:19.566Z,17.10
2018-02-14T10:15:47.858Z,17.37
2018-02-14T10:18:16.135Z,17.13
2018-02-14T10:20:44.461Z,16.40
2018-02-14T10:23:12.907Z,16.73
2018-02-14T10:25:41.172Z,16.87
2018-02-14T10:28:09.466Z,19.33
2018-02-14T10:30:37.793Z,18.03
2018-02-14T10:33:06.907Z,18.57
2018-02-14T10:35:35.247Z,20.00
2018-02-14T10:38:03.536Z,17.20
2018-02-14T10:40:31.791Z,16.83
2018-02-14T10:43:00.047Z,18.37
2018-02-14T10:45:28.322Z,24.67
2018-02-14T10:47:56.662Z,17.43
2018-02-14T10:50:25.061Z,20.80
2018-02-14T10:52:53.375Z,21.87
2018-02-14T10:55:22.394Z,21.20
2018-02-14T10:57:50.706Z,18.50
2018-02-14T11:00:18.982Z,21.80
2018-02-14T11:02:47.243Z,16.53
2018-02-14T11:05:15.557Z,25.47
2018-02-14T11:07:44.651Z,17.70
2018-02-14T11:10:12.871Z,17.67
2018-02-14T11:12:41.119Z,17.90
2018-02-14T11:15:10.147Z,20.83
2018-02-14T11:17:38.406Z,16.13
2018-02-14T11:20:06.705Z,15.67
2018-02-14T11:22:35.067Z,17.97
2018-02-14T11:25:03.349Z,16.37
2018-02-14T11:27:31.633Z,13.80
2018-02-14T11:29:59.923Z,18.17
2018-02-14T11:32:28.162Z,11.93
2018-02-14T11:34:56.424Z,14.73
2018-02-14T11:37:24.687Z,14.63
2018-02-14T11:39:53.725Z,17.47
2018-02-14T11:42:22.050Z,11.60
2018-02-14T11:44:51.139Z,16.20
2018-02-14T11:47:19.541Z,12.83
2018-02-14T11:49:47.741Z,9.73
2018-02-14T11:52:15.990Z,15.27
2018-02-14T11:54:44.537Z,15.03
2018-02-14T11:57:12.755Z,16.93
2018-02-14T11:59:41.021Z,14.20
2018-02-14T12:02:09.282Z,14.40
2018-02-14T12:04:38.281Z,14.60
2018-02-14T12:07:06.671Z,16.10
2018-02-14T12:09:34.969Z,12.93
2018-02-14T12:12:03.211Z,13.63
2018-02-14T12:14:31.487Z,14.20
2018-02-14T12:16:59.734Z,11.47
2018-02-14T12:19:28.768Z,15.17
2018-02-14T12:21:56.998Z,12.10
2018-02-14T12:24:26.051Z,14.87
2018-02-14T12:26:54.329Z,13.87
2018-02-14T12:29:22.585Z,12.43
2018-02-14T12:31:50.848Z,13.70
2018-02-14T12:34:19.102Z,14.80
2018-02-14T12:36:48.230Z,10.53
2018-02-14T12:39:16.503Z,14.00
2018-02-14T12:41:44.779Z,15.57
2018-02-14T12:44:13.031Z,12.10
2018-02-14T12:46:42.043Z,10.37
2018-02-14T12:49:10.458Z,11.97
2018-02-14T12:51:40.227Z,11.43
2018-02-14T12:54:08.483Z,10.23
2018-02-14T12:56:37.553Z,11.60
2018-02-14T12:59:05.794Z,12.40
2018-02-14T13:01:34.051Z,10.20
2018-02-14T13:04:02.304Z,9.83
2018-02-14T13:06:31.302Z,12.93
2018-02-14T13:08:59.606Z,10.60
2018-02-14T13:11:27.846Z,12.83
2018-02-14T13:13:56.152Z,12.73
2018-02-14T13:16:24.391Z,12.30
2018-02-14T13:18:53.411Z,11.63
2018-02-14T13:21:21.698Z,11.17
2018-02-14T13:23:50.028Z,11.13
2018-02-14T13:26:19.058Z,11.80
2018-02-14T13:28:47.373Z,12.33
2018-02-14T13:31:17.166Z,11.80
2018-02-14T13:33:45.446Z,15.10
2018-02-14T13:36:13.691Z,11.20
2018-02-14T13:38:41.942Z,11.90
2018-02-14T13:41:10.203Z,12.27
2018-02-14T13:43:39.201Z,13.20
2018-02-14T13:46:08.215Z,14.93
2018-02-14T13:48:36.458Z,14.30
2018-02-14T13:51:05.510Z,12.53
2018-02-14T13:53:33.747Z,10.07
2018-02-14T13:56:02.014Z,14.20
2018-02-14T13:58:30.270Z,13.00
2018-02-14T14:00:59.572Z,9.57
2018-02-14T14:03:27.786Z,9.30
2018-02-14T14:05:56.062Z,14.30
2018-02-14T14:08:24.322Z,13.00
2018-02-14T14:10:52.639Z,12.93
2018-02-14T14:13:21.729Z,11.03
2018-02-14T14:15:49.992Z,11.80
2018-02-14T14:18:18.284Z,11.53
2018-02-14T14:20:46.578Z,11.17
2018-02-14T14:23:14.827Z,10.37
2018-02-14T14:25:43.102Z,10.87
2018-02-14T14:28:11.354Z,11.07
2018-02-14T14:30:39.608Z,10.03
2018-02-14T14:33:07.872Z,11.83
2018-02-14T14:35:36.874Z,11.23
2018-02-14T14:38:05.157Z,10.53
2018-02-14T14:40:33.410Z,7.50
2018-02-14T14:43:02.488Z,8.90
2018-02-14T14:45:30.713Z,8.67
2018-02-14T14:47:58.991Z,10.30
2018-02-14T14:50:27.234Z,11.23
2018-02-14T14:52:55.521Z,10.17
2018-02-14T14:55:23.778Z,11.67
2018-02-14T14:57:52.851Z,12.33
2018-02-14T15:00:21.351Z,11.47
2018-02-14T15:02:49.556Z,12.27
2018-02-14T15:05:17.809Z,11.33
2018-02-14T15:07:46.819Z,10.60
2018-02-14T15:10:15.087Z,10.57
2018-02-14T15:12:43.424Z,9.93
2018-02-14T15:15:11.675Z,10.27
2018-02-14T15:17:39.958Z,9.47
2018-02-14T15:20:08.288Z,12.37
2018-02-14T15:22:36.527Z,8.63
2018-02-14T15:25:04.827Z,8.20
2018-02-14T15:27:33.831Z,9.37
2018-02-14T15:30:02.207Z,11.30
2018-02-14T15:32:30.448Z,8.43
2018-02-14T15:34:58.714Z,8.77
2018-02-14T15:37:26.974Z,9.27
2018-02-14T15:39:55.221Z,9.30
2018-02-14T15:42:23.502Z,6.27
2018-02-14T15:44:51.736Z,10.40
2018-02-14T15:47:20.766Z,7.83
2018-02-14T15:49:49.106Z,10.13
2018-02-14T15:52:17.375Z,11.53
2018-02-14T15:54:46.435Z,12.83
2018-02-14T15:57:14.683Z,8.00
2018-02-14T15:59:42.930Z,8.40
2018-02-14T16:02:11.227Z,13.40
2018-02-14T16:04:39.474Z,8.97
2018-02-14T16:07:07.736Z,9.57
2018-02-14T16:09:35.966Z,7.70
2018-02-14T16:12:04.232Z,8.40
2018-02-14T16:14:32.662Z,10.10
2018-02-14T16:17:01.603Z,8.10
2018-02-14T16:19:29.874Z,8.17
2018-02-14T16:21:58.150Z,6.83
2018-02-14T16:24:26.418Z,7.27
2018-02-14T16:26:54.691Z,8.70
2018-02-14T16:29:22.948Z,7.37
2018-02-14T16:31:51.154Z,8.23
2018-02-14T16:34:19.403Z,5.37
2018-02-14T16:36:47.641Z,7.20
2018-02-14T16:39:15.918Z,10.50
2018-02-14T16:41:44.211Z,7.57
2018-02-14T16:44:13.227Z,6.90
2018-02-14T16:46:41.470Z,9.53
2018-02-14T16:49:10.514Z,8.33
2018-02-14T16:51:38.778Z,10.97
2018-02-14T16:54:07.063Z,6.83
2018-02-14T16:56:35.559Z,8.47
2018-02-14T16:59:03.848Z,11.63
2018-02-14T17:01:32.986Z,4.87
2018-02-14T17:04:01.253Z,6.90
2018-02-14T17:06:29.525Z,7.03
2018-02-14T17:08:58.518Z,7.40
2018-02-14T17:11:26.832Z,7.17
2018-02-14T17:13:55.282Z,6.50
2018-02-14T17:16:23.561Z,8.20
2018-02-14T17:18:51.903Z,10.90
2018-02-14T17:21:20.179Z,8.87
2018-02-14T17:23:48.454Z,6.70
2018-02-14T17:26:16.699Z,8.07
2018-02-14T17:28:45.063Z,7.77
2018-02-14T17:31:14.082Z,7.37
2018-02-14T17:33:43.855Z,7.60
2018-02-14T17:36:12.105Z,8.93
2018-02-14T17:38:40.380Z,9.13
2018-02-14T17:41:09.456Z,8.77
2018-02-14T17:43:37.707Z,11.63
2018-02-14T17:46:05.981Z,10.63
2018-02-14T17:48:34.275Z,7.90
2018-02-14T17:51:03.290Z,10.27
2018-02-14T17:53:31.559Z,8.77
2018-02-14T17:56:00.573Z,10.80
2018-02-14T17:58:29.760Z,13.00
2018-02-14T18:00:58.050Z,11.53
2018-02-14T18:03:26.357Z,12.17
2018-02-14T18:05:54.649Z,11.83
2018-02-14T18:08:22.988Z,11.07
2018-02-14T18:10:51.256Z,11.07
2018-02-14T18:13:19.574Z,10.90
2018-02-14T18:15:47.822Z,12.57
2018-02-14T18:18:16.114Z,10.10
2018-02-14T18:20:44.416Z,10.13
2018-02-14T18:23:13.446Z,12.97
2018-02-14T18:25:41.976Z,12.00
2018-02-14T18:28:10.995Z,11.33
2018-02-14T18:30:39.314Z,11.43
2018-02-14T18:33:07.583Z,10.10
2018-02-14T18:35:35.868Z,14.00
2018-02-14T18:38:04.159Z,9.77
2018-02-14T18:40:32.491Z,9.87
2018-02-14T18:43:00.747Z,11.73
2018-02-14T18:45:29.758Z,11.53
2018-02-14T18:47:58.044Z,15.00
2018-02-14T18:50:26.282Z,14.70
2018-02-14T18:52:55.314Z,12.57
2018-02-14T18:55:23.746Z,16.27
2018-02-14T18:57:52.811Z,12.87
2018-02-14T19:00:21.068Z,12.20
2018-02-14T19:02:49.353Z,11.73
2018-02-14T19:05:17.602Z,14.90
2018-02-14T19:07:45.888Z,13.20
2018-02-14T19:10:14.225Z,10.70
2018-02-14T19:12:42.504Z,11.63
2018-02-14T19:15:10.953Z,13.67
2018-02-14T19:17:39.996Z,17.08
2018-02-14T19:20:09.120Z,16.07
2018-02-14T19:22:37.395Z,12.97
2018-02-14T19:25:05.672Z,14.90
2018-02-14T19:27:34.730Z,11.23
2018-02-14T19:30:03.019Z,16.33
2018-02-14T19:32:32.167Z,12.73
2018-02-14T19:35:01.256Z,11.27
2018-02-14T19:37:29.502Z,14.17
2018-02-14T19:39:57.921Z,12.57
2018-02-14T19:42:26.941Z,16.37
2018-02-14T19:44:55.209Z,16.17
2018-02-14T19:47:23.462Z,13.50
2018-02-14T19:49:52.491Z,11.10
2018-02-14T19:52:20.738Z,13.27
2018-02-14T19:54:49.141Z,11.50
2018-02-14T19:57:17.671Z,13.57
2018-02-14T19:59:46.122Z,10.60
2018-02-14T20:02:14.343Z,9.03
2018-02-14T20:04:42.629Z,14.93
2018-02-14T20:07:10.872Z,10.40
2018-02-14T20:09:39.930Z,12.83
2018-02-14T20:12:08.150Z,9.10
2018-02-14T20:14:37.203Z,9.63
2018-02-14T20:17:05.490Z,11.83
2018-02-14T20:19:33.781Z,13.20
2018-02-14T20:22:02.168Z,11.67
2018-02-14T20:24:30.396Z,15.30
2018-02-14T20:26:58.658Z,11.83
2018-02-14T20:29:26.902Z,15.97
2018-02-14T20:31:55.175Z,15.17
2018-02-14T20:34:23.460Z,12.60
2018-02-14T20:36:51.723Z,13.80
2018-02-14T20:39:20.018Z,14.57
2018-02-14T20:41:48.386Z,9.83
2018-02-14T20:44:16.654Z,11.60
2018-02-14T20:46:45.706Z,11.50
2018-02-14T20:49:13.982Z,13.07
2018-02-14T20:51:42.365Z,12.00
2018-02-14T20:54:10.917Z,12.73
2018-02-14T20:56:39.214Z,19.27
2018-02-14T20:59:07.640Z,16.63
2018-02-14T21:01:35.999Z,15.33
2018-02-14T21:04:04.245Z,13.97
2018-02-14T21:06:33.366Z,21.07
2018-02-14T21:09:01.725Z,17.77
2018-02-14T21:11:30.052Z,19.17
2018-02-14T21:13:58.308Z,19.67
2018-02-14T21:16:26.570Z,19.70
2018-02-14T21:18:55.749Z,13.00
2018-02-14T21:21:24.138Z,12.43
2018-02-14T21:23:53.177Z,14.90
2018-02-14T21:26:21.420Z,13.83
2018-02-14T21:28:50.484Z,15.37
2018-02-14T21:31:18.762Z,20.83
2018-02-14T21:33:47.028Z,17.20
2018-02-14T21:36:15.418Z,15.23
2018-02-14T21:38:43.652Z,15.97
2018-02-14T21:41:11.994Z,17.10
2018-02-14T21:43:42.883Z,13.63
2018-02-14T21:46:11.178Z,15.03
2018-02-14T21:48:40.228Z,15.17
2018-02-14T21:51:08.479Z,16.30
2018-02-14T21:53:36.734Z,15.33
2018-02-14T21:56:05.767Z,17.80
2018-02-14T21:58:34.027Z,18.57
2018-02-14T22:01:02.362Z,16.33
2018-02-14T22:03:30.623Z,17.73
2018-02-14T22:05:58.886Z,16.57
2018-02-14T22:08:27.134Z,18.03
2018-02-14T22:10:55.567Z,15.90
2018-02-14T22:13:23.850Z,14.87
2018-02-14T22:15:52.876Z,18.23
2018-02-14T22:18:21.144Z,18.47
2018-02-14T22:20:49.402Z,17.97
2018-02-14T22:23:17.682Z,18.17
2018-02-14T22:25:45.970Z,20.20
2018-02-14T22:28:14.214Z,20.27
2018-02-14T22:30:43.239Z,17.40
2018-02-14T22:33:11.506Z,15.97
2018-02-14T22:35:39.793Z,16.77
2018-02-14T22:38:08.066Z,16.00
2018-02-14T22:40:36.332Z,20.13
2018-02-14T22:43:04.591Z,20.10
2018-02-14T22:45:33.599Z,16.63
2018-02-14T22:48:01.895Z,17.33
2018-02-14T22:50:30.154Z,20.23
2018-02-14T22:52:58.414Z,18.47
2018-02-14T22:55:26.670Z,18.33
2018-02-14T22:57:55.770Z,18.30
2018-02-14T23:00:24.791Z,16.63
2018-02-14T23:02:53.122Z,19.73
2018-02-14T23:05:21.368Z,19.63
2018-02-14T23:07:49.620Z,15.53
2018-02-14T23:10:17.982Z,17.20
2018-02-14T23:12:46.226Z,17.50
2018-02-14T23:15:14.497Z,18.23
2018-02-14T23:17:42.751Z,17.17
2018-02-14T23:20:11.062Z,19.00
2018-02-14T23:22:40.083Z,20.93
2018-02-14T23:25:08.350Z,19.73
2018-02-14T23:27:36.606Z,20.53
2018-02-14T23:30:05.635Z,14.70
2018-02-14T23:32:33.911Z,22.20
2018-02-14T23:35:02.145Z,18.73
2018-02-14T23:37:31.193Z,20.87
2018-02-14T23:39:59.694Z,19.80
2018-02-14T23:42:28.746Z,20.37
2018-02-14T23:44:57.006Z,17.30
2018-02-14T23:47:25.448Z,19.97
2018-02-14T23:49:53.663Z,19.50
2018-02-14T23:52:21.927Z,19.23
2018-02-14T23:54:50.192Z,17.53
2018-02-14T23:57:19.235Z,19.10
2018-02-14T23:59:47.483Z,22.20
